Time;durP1;ratioP1;P1;durP2;ratioP2;P2;SDS_P1;SDS_P2;PMS_P1;PMS_P2;Temp;Humidity;BMP_temperature;BMP_pressure;BME280_temperature;BME280_humidity;BME280_pressure;Samples;Min_cycle;Max_cycle;Signal;HPM_P1;HPM_P2
2023/07/20 00:02:07;;;;;;;1.30;1.20;;;;;;;25.67;100.00;99720.00;5015932;28;20195;-70
2023/07/20 00:04:37;;;;;;;1.65;1.48;;;;;;;25.69;100.00;99723.41;5052001;28;20254;-69
2023/07/20 00:07:05;;;;;;;1.77;1.63;;;;;;;25.43;100.00;99702.66;5015362;28;20666;-69
2023/07/20 00:09:32;;;;;;;1.60;1.50;;;;;;;25.72;100.00;99717.13;5050567;28;20846;-69
2023/07/20 00:11:59;;;;;;;1.92;1.83;;;;;;;25.62;100.00;99680.41;5050824;28;20569;-69
2023/07/20 00:14:26;;;;;;;1.63;1.50;;;;;;;25.81;94.92;99672.31;5016335;28;20200;-70
2023/07/20 00:16:57;;;;;;;1.58;1.48;;;;;;;26.09;92.73;99655.72;5051979;28;20191;-70
2023/07/20 00:19:24;;;;;;;1.50;1.40;;;;;;;26.22;91.77;99646.16;5048976;28;20218;-70
2023/07/20 00:21:51;;;;;;;1.60;1.50;;;;;;;26.15;95.38;99624.34;5051670;28;20694;-69
2023/07/20 00:24:18;;;;;;;1.40;1.30;;;;;;;26.10;100.00;99599.84;5051742;28;20294;-70
2023/07/20 00:26:45;;;;;;;1.10;1.10;;;;;;;26.11;100.00;99601.53;5051485;28;20215;-70
2023/07/20 00:29:12;;;;;;;1.58;1.45;;;;;;;25.96;100.00;99601.56;5049934;28;20206;-69
2023/07/20 00:31:39;;;;;;;1.38;1.27;;;;;;;26.14;96.49;99584.56;5049175;28;20203;-69
2023/07/20 00:34:07;;;;;;;1.30;1.20;;;;;;;26.12;94.11;99582.00;5050661;28;20568;-70
2023/07/20 00:36:34;;;;;;;1.45;1.35;;;;;;;26.33;97.14;99550.69;5016521;28;20222;-70
2023/07/20 00:39:01;;;;;;;1.55;1.45;;;;;;;26.36;94.75;99388.34;5051098;28;20203;-70
2023/07/20 00:41:29;;;;;;;1.55;1.45;;;;;;;26.41;100.00;99333.09;5051700;28;20212;-70
2023/07/20 00:43:56;;;;;;;1.40;1.30;;;;;;;26.49;100.00;99383.16;5051316;28;20674;-70
2023/07/20 00:46:24;;;;;;;1.33;1.23;;;;;;;26.11;100.00;99393.41;5051437;28;20223;-70
2023/07/20 00:48:51;;;;;;;0.93;0.93;;;;;;;25.79;100.00;99386.47;4983574;28;20551;-70
2023/07/20 00:51:20;;;;;;;1.45;1.35;;;;;;;25.81;100.00;99403.16;5051883;28;20206;-70
2023/07/20 00:53:48;;;;;;;1.48;1.38;;;;;;;25.84;100.00;99437.53;5050090;28;20235;-70
2023/07/20 00:56:15;;;;;;;1.60;1.50;;;;;;;25.43;100.00;99458.44;5050597;28;20225;-70
2023/07/20 00:58:42;;;;;;;1.70;1.60;;;;;;;25.34;100.00;99448.31;5049350;28;20310;-70
2023/07/20 01:01:09;;;;;;;1.35;1.25;;;;;;;25.05;100.00;99434.84;5015409;28;20207;-70
2023/07/20 01:03:35;;;;;;;1.20;1.20;;;;;;;24.96;100.00;99421.22;5051035;28;20689;-70
2023/07/20 01:06:11;;;;;;;1.25;1.20;;;;;;;25.14;100.00;99422.88;5014212;28;20571;-70
2023/07/20 01:08:48;;;;;;;1.10;1.10;;;;;;;24.94;100.00;99436.34;5051403;28;20203;-71
2023/07/20 01:11:24;;;;;;;1.00;1.00;;;;;;;24.83;100.00;99458.16;5016086;28;20199;-71
2023/07/20 01:13:51;;;;;;;1.10;1.10;;;;;;;24.63;100.00;99484.84;5017859;28;20191;-71
2023/07/20 01:16:18;;;;;;;1.00;1.00;;;;;;;24.40;100.00;99470.09;5050030;28;20199;-71
2023/07/20 01:18:45;;;;;;;1.00;1.00;;;;;;;24.29;100.00;99447.75;5050436;28;20196;-70
2023/07/20 01:21:18;;;;;;;1.10;1.10;;;;;;;24.15;100.00;99400.78;5048985;28;20199;-69
2023/07/20 01:24:18;;;;;;;1.00;1.00;;;;;;;24.30;100.00;99436.19;5050770;28;20208;-70
2023/07/20 01:27:02;;;;;;;1.05;1.05;;;;;;;24.35;100.00;99436.84;4987794;28;20233;-70
2023/07/20 01:29:55;;;;;;;1.00;1.00;;;;;;;24.22;100.00;99447.22;4989399;28;20225;-69
2023/07/20 01:32:25;;;;;;;0.90;0.90;;;;;;;24.30;100.00;99455.63;4988314;28;20712;-69
2023/07/20 01:34:54;;;;;;;1.30;1.30;;;;;;;24.25;100.00;99448.84;4988418;28;20244;-69
2023/07/20 01:37:25;;;;;;;0.70;0.70;;;;;;;24.40;100.00;99448.06;4988361;28;20688;-70
2023/07/20 01:39:55;;;;;;;1.10;1.10;;;;;;;24.35;100.00;99456.25;4942013;28;20246;-69
2023/07/20 01:42:23;;;;;;;0.90;0.90;;;;;;;24.17;100.00;99471.28;4987414;28;20268;-69
2023/07/20 01:44:52;;;;;;;0.90;0.90;;;;;;;24.08;100.00;99479.63;4989167;28;20228;-70
2023/07/20 01:47:19;;;;;;;0.90;0.90;;;;;;;24.06;100.00;99470.94;4988767;28;20297;-70
2023/07/20 01:49:47;;;;;;;0.98;0.98;;;;;;;24.34;100.00;99485.47;4989532;28;20205;-68
2023/07/20 01:52:15;;;;;;;0.90;0.90;;;;;;;24.31;100.00;99506.81;4940971;28;20213;-69
2023/07/20 01:54:41;;;;;;;0.90;0.90;;;;;;;24.42;100.00;99504.50;4988633;28;20205;-69
2023/07/20 01:57:08;;;;;;;1.00;1.00;;;;;;;24.53;100.00;99513.63;4986971;28;20206;-69
2023/07/20 01:59:35;;;;;;;1.00;1.00;;;;;;;24.74;100.00;99506.34;4988403;28;20209;-70
2023/07/20 02:02:02;;;;;;;1.00;1.00;;;;;;;24.94;100.00;99516.78;4988551;28;20248;-70
2023/07/20 02:04:28;;;;;;;1.85;1.20;;;;;;;25.06;100.00;99526.78;5042954;28;20252;-70
2023/07/20 02:06:57;;;;;;;1.02;1.02;;;;;;;25.28;100.00;99517.66;5048112;28;20230;-70
2023/07/20 02:09:23;;;;;;;0.90;0.90;;;;;;;25.37;100.00;99514.50;5047845;28;20214;-71
2023/07/20 02:11:50;;;;;;;1.10;1.10;;;;;;;25.39;100.00;99509.97;5050278;28;20294;-70
2023/07/20 02:14:17;;;;;;;1.10;1.10;;;;;;;25.42;100.00;99499.19;5050288;28;20219;-70
2023/07/20 02:16:44;;;;;;;1.10;1.10;;;;;;;25.52;99.13;99495.09;5050358;28;20872;-70
2023/07/20 02:19:10;;;;;;;0.90;0.90;;;;;;;25.61;97.98;99500.75;5049037;28;20261;-70
2023/07/20 02:21:37;;;;;;;1.10;1.10;;;;;;;25.61;94.89;99494.63;5049659;28;20195;-70
2023/07/20 02:24:06;;;;;;;0.90;0.90;;;;;;;25.85;94.64;99508.31;5050216;28;20195;-69
2023/07/20 02:26:33;;;;;;;1.10;1.10;;;;;;;25.98;92.56;99504.00;5050341;28;20258;-69
2023/07/20 02:29:00;;;;;;;0.93;0.93;;;;;;;26.04;91.97;99501.00;5050042;28;20717;-69
2023/07/20 02:31:27;;;;;;;1.00;1.00;;;;;;;25.98;92.43;99504.88;5048624;28;20712;-69
2023/07/20 02:33:53;;;;;;;1.20;1.20;;;;;;;25.94;93.58;99482.06;5049562;28;20272;-70
2023/07/20 02:36:20;;;;;;;1.20;1.20;;;;;;;26.00;94.20;99499.47;5050243;28;20721;-70
2023/07/20 02:38:47;;;;;;;1.38;1.38;;;;;;;25.83;97.28;99494.22;5046499;28;20265;-69
2023/07/20 02:41:15;;;;;;;1.60;1.50;;;;;;;25.98;96.81;99488.91;5048057;28;20214;-69
2023/07/20 02:43:42;;;;;;;1.20;1.20;;;;;;;25.69;100.00;99481.75;5047431;28;20207;-70
2023/07/20 02:46:09;;;;;;;1.30;1.30;;;;;;;25.45;100.00;99453.88;5045405;28;20289;-69
2023/07/20 02:48:35;;;;;;;1.10;1.10;;;;;;;25.70;100.00;99490.56;5050114;28;20199;-69
2023/07/20 02:51:02;;;;;;;1.42;1.42;;;;;;;25.73;99.29;99507.19;5049711;28;20199;-69
2023/07/20 02:53:29;;;;;;;1.30;1.30;;;;;;;25.84;97.67;99507.44;5047484;28;20211;-69
2023/07/20 02:55:56;;;;;;;1.30;1.30;;;;;;;25.81;100.00;99530.66;5048383;28;20218;-69
2023/07/20 02:58:24;;;;;;;1.30;1.30;;;;;;;25.63;100.00;99525.44;5048964;28;20227;-70
2023/07/20 03:00:51;;;;;;;1.30;1.30;;;;;;;25.08;100.00;99516.91;5045034;28;20214;-69
2023/07/20 03:03:17;;;;;;;1.30;1.30;;;;;;;25.00;100.00;99532.41;5049322;28;20195;-69
2023/07/20 03:05:44;;;;;;;1.30;1.30;;;;;;;24.69;100.00;99540.19;5047565;28;20231;-69
2023/07/20 03:08:11;;;;;;;1.40;1.40;;;;;;;24.43;100.00;99544.19;5048993;28;20207;-69
2023/07/20 03:10:41;;;;;;;1.15;1.15;;;;;;;24.27;100.00;99548.50;5045234;28;20203;-69
2023/07/20 03:13:08;;;;;;;1.30;1.30;;;;;;;24.23;100.00;99548.72;5047149;28;20287;-68
2023/07/20 03:15:36;;;;;;;1.10;1.10;;;;;;;24.29;100.00;99545.81;5045757;28;20203;-73
2023/07/20 03:18:04;;;;;;;1.23;1.23;;;;;;;24.23;100.00;99556.69;5048831;28;20203;-67
2023/07/20 03:20:32;;;;;;;1.10;1.10;;;;;;;24.35;100.00;99554.31;5011308;28;20203;-67
2023/07/20 03:22:59;;;;;;;1.30;1.30;;;;;;;24.50;100.00;99560.63;5049129;28;20203;-67
2023/07/20 03:25:26;;;;;;;1.20;1.20;;;;;;;24.76;100.00;99554.84;5049403;28;20277;-69
2023/07/20 03:27:52;;;;;;;1.85;1.75;;;;;;;24.65;100.00;99535.97;5049325;28;20663;-68
2023/07/20 03:30:19;;;;;;;1.17;1.17;;;;;;;24.78;100.00;99529.13;5051550;28;20216;-67
2023/07/20 03:32:47;;;;;;;1.30;1.30;;;;;;;25.03;100.00;99547.31;5050999;28;20207;-67
2023/07/20 03:35:15;;;;;;;1.15;1.15;;;;;;;25.01;100.00;99552.69;5051503;28;20681;-67
2023/07/20 03:37:43;;;;;;;1.30;1.30;;;;;;;25.16;100.00;99545.69;5052485;28;20191;-68
2023/07/20 03:40:10;;;;;;;1.10;1.10;;;;;;;25.23;100.00;99540.91;5052497;28;20234;-68
2023/07/20 03:42:38;;;;;;;1.20;1.20;;;;;;;25.19;100.00;99545.53;5017303;28;20188;-67
2023/07/20 03:45:06;;;;;;;1.20;1.20;;;;;;;25.27;100.00;99545.13;5051037;28;20535;-67
2023/07/20 03:47:33;;;;;;;1.30;1.30;;;;;;;25.11;100.00;99535.31;5052175;28;20709;-68
2023/07/20 03:50:01;;;;;;;1.30;1.30;;;;;;;25.13;100.00;99540.56;5049517;28;20215;-68
2023/07/20 03:52:28;;;;;;;1.30;1.30;;;;;;;25.05;100.00;99510.91;5051836;28;20195;-67
2023/07/20 03:54:54;;;;;;;1.20;1.20;;;;;;;26.04;100.00;99507.16;5046893;28;20207;-68
2023/07/20 03:57:21;;;;;;;1.30;1.30;;;;;;;26.82;100.00;99476.88;5049873;28;20223;-68
2023/07/20 03:59:49;;;;;;;1.30;1.30;;;;;;;27.58;100.00;99498.72;5051362;28;20199;-66
2023/07/20 04:02:16;;;;;;;1.20;1.20;;;;;;;28.41;91.62;99484.38;5052087;28;20202;-68
2023/07/20 04:04:43;;;;;;;1.10;1.10;;;;;;;29.63;82.71;99509.59;5049487;28;20206;-68
2023/07/20 04:07:11;;;;;;;1.02;1.02;;;;;;;30.41;74.57;99518.06;5045938;28;20973;-68
2023/07/20 04:09:38;;;;;;;1.35;1.30;;;;;;;29.48;78.92;99521.38;5015703;28;20273;-68
2023/07/20 04:12:05;;;;;;;1.30;1.30;;;;;;;29.52;79.18;99525.53;5051870;28;20222;-68
2023/07/20 04:14:32;;;;;;;1.10;1.10;;;;;;;29.25;78.66;99492.75;5051009;28;20571;-68
2023/07/20 04:17:00;;;;;;;1.23;1.23;;;;;;;29.22;81.12;99492.94;5052168;28;20570;-69
2023/07/20 04:19:27;;;;;;;1.27;1.27;;;;;;;29.29;80.90;99499.59;5049439;28;20654;-69
2023/07/20 04:21:53;;;;;;;1.20;1.20;;;;;;;29.59;77.61;99504.56;5051954;28;20214;-69
2023/07/20 04:24:21;;;;;;;1.10;1.10;;;;;;;29.98;75.42;99518.59;5052210;28;20211;-70
2023/07/20 04:26:48;;;;;;;1.15;1.15;;;;;;;29.14;78.07;99522.03;5052005;28;20230;-70
2023/07/20 04:29:15;;;;;;;1.10;1.10;;;;;;;28.52;83.62;99520.03;5050930;28;20198;-72
2023/07/20 04:31:42;;;;;;;1.20;1.20;;;;;;;27.39;90.39;99514.13;5050869;28;20261;-70
2023/07/20 04:34:08;;;;;;;1.10;1.10;;;;;;;26.79;97.09;99518.75;5049755;28;20207;-68
2023/07/20 04:36:35;;;;;;;1.10;1.10;;;;;;;26.48;100.00;99515.25;5050895;28;20214;-68
2023/07/20 04:39:03;;;;;;;1.30;1.30;;;;;;;26.30;100.00;99526.94;5050346;28;20298;-67
2023/07/20 04:41:31;;;;;;;1.20;1.20;;;;;;;26.27;100.00;99540.44;5052104;28;20210;-68
2023/07/20 04:43:58;;;;;;;1.35;1.35;;;;;;;26.11;100.00;99545.72;5049409;28;20208;-68
2023/07/20 04:46:24;;;;;;;1.17;1.17;;;;;;;26.55;100.00;99547.66;5014932;28;20615;-68
2023/07/20 04:48:51;;;;;;;1.33;1.33;;;;;;;26.27;100.00;99558.16;5012455;28;20671;-69
2023/07/20 04:51:20;;;;;;;1.23;1.23;;;;;;;25.91;100.00;99551.31;5029927;28;20214;-67
2023/07/20 04:53:47;;;;;;;1.30;1.30;;;;;;;25.88;100.00;99583.38;5050530;28;20299;-68
2023/07/20 04:56:14;;;;;;;1.48;1.38;;;;;;;26.00;100.00;99593.34;5016064;28;20769;-69
2023/07/20 04:58:42;;;;;;;5.57;1.85;;;;;;;25.50;100.00;99496.97;5051315;28;20223;-67
2023/07/20 05:01:09;;;;;;;8.80;2.35;;;;;;;25.49;100.00;99577.56;5049749;28;20211;-67
2023/07/20 05:03:36;;;;;;;5.10;1.80;;;;;;;25.22;100.00;99573.72;5049434;28;20211;-67
2023/07/20 05:06:03;;;;;;;5.82;1.88;;;;;;;25.34;100.00;99575.72;5044136;28;20211;-67
2023/07/20 05:08:29;;;;;;;4.13;1.77;;;;;;;25.65;100.00;99579.31;5050648;28;20203;-67
2023/07/20 05:10:56;;;;;;;4.90;1.92;;;;;;;26.26;100.00;99583.91;5016295;28;20203;-68
2023/07/20 05:13:23;;;;;;;8.30;2.17;;;;;;;26.85;100.00;99576.94;5051191;28;20206;-70
2023/07/20 05:15:54;;;;;;;8.20;2.13;;;;;;;27.36;100.00;99580.91;5051065;28;20195;-74
2023/07/20 05:18:21;;;;;;;5.18;1.65;;;;;;;27.90;98.03;99580.13;5047574;28;20200;-73
2023/07/20 05:20:48;;;;;;;0.77;0.77;;;;;;;28.54;93.52;99581.25;5013461;28;20218;-74
2023/07/20 05:23:14;;;;;;;0.65;0.65;;;;;;;28.66;92.05;99583.13;5048570;28;20295;-74
2023/07/20 05:25:41;;;;;;;0.65;0.65;;;;;;;28.81;93.87;99573.28;5048101;28;20730;-72
2023/07/20 05:28:08;;;;;;;1.02;1.02;;;;;;;28.69;92.28;99580.28;5009582;28;20219;-73
2023/07/20 05:30:35;;;;;;;0.90;0.90;;;;;;;28.89;92.57;99581.63;5049381;28;20214;-73
2023/07/20 05:33:03;;;;;;;1.15;1.15;;;;;;;28.70;94.25;99560.66;5047546;28;20268;-73
2023/07/20 05:35:30;;;;;;;1.20;1.20;;;;;;;29.34;90.14;99561.56;5048416;28;20214;-73
2023/07/20 05:37:57;;;;;;;1.13;1.13;;;;;;;29.88;85.48;99540.78;5046664;28;20203;-73
2023/07/20 05:40:23;;;;;;;1.30;1.30;;;;;;;30.33;84.88;99545.38;5049494;28;20203;-73
2023/07/20 05:42:51;;;;;;;1.48;1.48;;;;;;;30.82;79.79;99534.50;5048743;28;20202;-73
2023/07/20 05:45:19;;;;;;;1.20;1.20;;;;;;;30.77;78.54;99547.41;5049485;28;20226;-73
2023/07/20 05:47:46;;;;;;;1.33;1.33;;;;;;;29.80;83.91;99543.97;5048788;28;20226;-74
2023/07/20 05:50:14;;;;;;;1.45;1.40;;;;;;;29.99;82.75;99547.06;5049883;28;20214;-72
2023/07/20 05:52:41;;;;;;;1.50;1.40;;;;;;;29.68;86.52;99533.31;5044949;28;20207;-72
2023/07/20 05:55:08;;;;;;;1.50;1.40;;;;;;;29.51;85.87;99531.84;5043574;28;20202;-73
2023/07/20 05:57:36;;;;;;;1.13;1.13;;;;;;;29.56;86.92;99535.06;5045290;28;20314;-71
2023/07/20 06:00:03;;;;;;;0.80;0.80;;;;;;;29.09;86.47;99508.13;5046874;28;20663;-71
2023/07/20 06:02:30;;;;;;;1.15;1.15;;;;;;;29.03;90.08;99536.13;5047133;28;20286;-70
2023/07/20 06:04:57;;;;;;;0.88;0.88;;;;;;;29.49;86.55;99544.47;5049896;28;20195;-71
2023/07/20 06:07:25;;;;;;;1.45;1.45;;;;;;;29.27;87.03;99554.97;5045131;28;20234;-71
2023/07/20 06:09:52;;;;;;;0.77;0.77;;;;;;;29.62;86.31;99555.13;5049386;28;20211;-71
2023/07/20 06:12:18;;;;;;;0.60;0.60;;;;;;;30.57;80.43;99552.59;5013677;28;20214;-71
2023/07/20 06:14:46;;;;;;;0.80;0.80;;;;;;;30.64;80.22;99556.50;5011401;28;20199;-70
2023/07/20 06:17:13;;;;;;;6.50;1.15;;;;;;;30.52;77.08;99568.13;5048525;28;20198;-71
2023/07/20 06:19:39;;;;;;;1.98;1.88;;;;;;;30.20;79.48;99566.00;5049053;28;20194;-71
2023/07/20 06:22:06;;;;;;;0.80;0.80;;;;;;;29.97;81.01;99562.34;5049506;28;20665;-71
2023/07/20 06:24:34;;;;;;;0.80;0.80;;;;;;;30.36;80.87;99565.69;5041032;28;20206;-71
2023/07/20 06:27:01;;;;;;;0.90;0.90;;;;;;;30.12;80.95;99548.81;5040606;28;20579;-69
2023/07/20 06:29:28;;;;;;;0.88;0.88;;;;;;;30.07;83.60;99567.03;5043705;28;20268;-71
2023/07/20 06:31:54;;;;;;;0.95;0.95;;;;;;;30.11;82.65;99565.84;5034821;28;20215;-70
2023/07/20 06:34:21;;;;;;;0.90;0.90;;;;;;;29.81;83.26;99561.72;5032045;28;20308;-71
2023/07/20 06:36:48;;;;;;;0.93;0.93;;;;;;;29.51;85.70;99564.75;4999437;28;20651;-71
2023/07/20 06:39:15;;;;;;;1.10;1.10;;;;;;;29.54;88.20;99569.03;5034396;28;20206;-71
2023/07/20 06:41:43;;;;;;;1.30;1.30;;;;;;;29.67;86.89;99575.22;5037299;28;20297;-70
2023/07/20 06:44:10;;;;;;;1.17;1.17;;;;;;;29.30;87.13;99528.88;5037387;28;20611;-70
2023/07/20 06:46:37;;;;;;;1.10;1.10;;;;;;;29.29;87.29;99577.06;5048087;28;20650;-70
2023/07/20 06:49:07;;;;;;;1.17;1.17;;;;;;;29.33;90.96;99563.38;5047674;28;20199;-70
2023/07/20 06:51:34;;;;;;;1.10;1.10;;;;;;;29.54;88.14;99580.56;5049126;28;20582;-69
2023/07/20 06:54:03;;;;;;;1.00;1.00;;;;;;;29.67;87.23;99593.94;5048645;28;20537;-69
2023/07/20 06:56:31;;;;;;;1.20;1.20;;;;;;;29.46;85.36;99588.31;5035240;28;20277;-69
2023/07/20 06:58:59;;;;;;;1.20;1.20;;;;;;;29.49;85.35;99581.88;5034833;28;20238;-69
2023/07/20 07:01:26;;;;;;;1.10;1.10;;;;;;;29.58;87.92;99581.22;5039748;28;20226;-70
2023/07/20 07:03:52;;;;;;;1.55;1.52;;;;;;;29.72;86.95;99574.88;5002377;28;20210;-71
2023/07/20 07:06:21;;;;;;;1.10;1.10;;;;;;;29.48;82.53;99569.47;5005494;28;20257;-71
2023/07/20 07:08:47;;;;;;;1.20;1.20;;;;;;;29.52;81.92;99566.47;5048242;28;20599;-70
2023/07/20 07:11:14;;;;;;;1.10;1.10;;;;;;;29.75;81.85;99604.91;5052035;28;20745;-69
2023/07/20 07:13:41;;;;;;;1.13;1.13;;;;;;;29.53;82.71;99607.41;5049017;28;20211;-70
2023/07/20 07:16:09;;;;;;;1.20;1.20;;;;;;;29.66;84.28;99583.34;5039289;28;20208;-69
2023/07/20 07:18:36;;;;;;;1.10;1.10;;;;;;;29.67;81.54;99585.91;5041533;28;20633;-69
2023/07/20 07:21:02;;;;;;;1.48;1.42;;;;;;;29.79;81.68;99611.75;5038126;28;20211;-68
2023/07/20 07:23:29;;;;;;;0.98;0.98;;;;;;;29.61;81.69;99590.84;5038769;28;20214;-69
2023/07/20 07:25:56;;;;;;;1.10;1.10;;;;;;;29.80;83.38;99610.78;4996854;28;20211;-69
2023/07/20 07:28:23;;;;;;;1.10;1.10;;;;;;;29.96;82.90;99616.81;5038866;28;20235;-70
2023/07/20 07:30:49;;;;;;;1.20;1.20;;;;;;;30.01;82.36;99617.31;5004573;28;20353;-69
2023/07/20 07:33:17;;;;;;;1.10;1.10;;;;;;;30.25;81.61;99629.88;5042801;28;20589;-71
2023/07/20 07:35:44;;;;;;;1.30;1.30;;;;;;;30.11;79.42;99603.28;5037843;28;20207;-70
2023/07/20 07:38:11;;;;;;;1.83;1.73;;;;;;;29.86;78.49;99605.03;5039614;28;20208;-71
2023/07/20 07:40:38;;;;;;;1.10;1.10;;;;;;;30.05;78.79;99627.78;5039886;28;20214;-70
2023/07/20 07:43:04;;;;;;;1.00;1.00;;;;;;;29.79;80.51;99617.09;5039297;28;20288;-73
2023/07/20 07:45:31;;;;;;;1.00;1.00;;;;;;;29.82;81.13;99621.38;5043799;28;20202;-71
2023/07/20 07:47:58;;;;;;;1.30;1.30;;;;;;;29.90;81.44;99611.00;5041840;28;20273;-72
2023/07/20 07:50:27;;;;;;;0.90;0.90;;;;;;;30.19;81.96;99635.66;5041018;28;20213;-70
2023/07/20 07:52:53;;;;;;;1.20;1.20;;;;;;;30.17;82.15;99640.28;5043973;28;20234;-70
2023/07/20 07:55:20;;;;;;;1.45;1.45;;;;;;;30.25;81.44;99637.91;5044499;28;20207;-72
2023/07/20 07:57:47;;;;;;;1.38;1.38;;;;;;;30.28;81.00;99624.28;5004791;28;20628;-70
2023/07/20 08:00:18;;;;;;;0.98;0.98;;;;;;;30.50;80.53;99636.00;5044804;28;20302;-72
2023/07/20 08:02:46;;;;;;;1.27;1.27;;;;;;;30.60;80.61;99635.31;5052206;28;20202;-71
2023/07/20 08:05:13;;;;;;;1.20;1.20;;;;;;;30.41;80.30;99609.03;5039835;28;20223;-72
2023/07/20 08:07:42;;;;;;;1.20;1.20;;;;;;;30.70;81.19;99631.84;5040569;28;20649;-72
2023/07/20 08:10:09;;;;;;;1.10;1.10;;;;;;;30.93;78.61;99628.28;5042140;28;20277;-71
2023/07/20 08:12:36;;;;;;;0.90;0.90;;;;;;;31.11;74.27;99630.56;5049041;28;20195;-71
2023/07/20 08:15:03;;;;;;;1.27;1.27;;;;;;;31.17;74.99;99625.59;5038600;28;20204;-71
2023/07/20 08:17:30;;;;;;;1.25;1.25;;;;;;;31.20;70.32;99621.81;5037618;28;20265;-70
2023/07/20 08:19:57;;;;;;;0.98;0.98;;;;;;;31.13;67.53;99620.56;5009259;28;20195;-70
2023/07/20 08:22:24;;;;;;;1.15;1.15;;;;;;;30.92;70.11;99631.09;5047745;28;20211;-71
2023/07/20 08:24:52;;;;;;;1.20;1.20;;;;;;;30.85;68.05;99641.41;5048301;28;20751;-71
2023/07/20 08:27:19;;;;;;;1.15;1.15;;;;;;;30.70;71.31;99642.56;5050852;28;20229;-69
2023/07/20 08:29:45;;;;;;;1.30;1.30;;;;;;;30.77;69.27;99653.66;5049431;28;20199;-70
2023/07/20 08:32:13;;;;;;;1.20;1.20;;;;;;;30.73;68.23;99646.81;5047061;28;20199;-70
2023/07/20 08:34:40;;;;;;;1.73;1.63;;;;;;;30.76;67.73;99652.78;5014060;28;20587;-71
2023/07/20 08:37:09;;;;;;;1.20;1.20;;;;;;;30.75;67.85;99639.53;5050764;28;20322;-72
2023/07/20 08:39:36;;;;;;;1.20;1.20;;;;;;;30.81;68.18;99658.66;5043599;28;20568;-71
2023/07/20 08:42:06;;;;;;;1.10;1.10;;;;;;;30.98;66.31;99673.50;5041861;28;20260;-71
2023/07/20 08:44:34;;;;;;;0.70;0.70;;;;;;;31.14;66.47;99647.25;5044554;28;20198;-71
2023/07/20 08:47:02;;;;;;;0.77;0.77;;;;;;;31.25;68.92;99657.16;5048715;28;20202;-71
2023/07/20 08:49:30;;;;;;;0.60;0.60;;;;;;;31.50;67.51;99685.59;5014378;28;20256;-71
2023/07/20 08:51:57;;;;;;;0.60;0.60;;;;;;;31.45;70.67;99678.75;5045927;28;20221;-70
2023/07/20 08:54:29;;;;;;;0.70;0.70;;;;;;;31.47;70.28;99668.75;5011989;28;20898;-70
2023/07/20 08:56:57;;;;;;;0.60;0.60;;;;;;;31.59;70.89;99664.31;5047253;28;20207;-70
2023/07/20 08:59:27;;;;;;;0.80;0.80;;;;;;;31.64;69.13;99672.84;5048031;28;20238;-70
2023/07/20 09:01:55;;;;;;;1.08;1.08;;;;;;;31.61;69.72;99672.22;5031750;28;20679;-70
2023/07/20 09:04:21;;;;;;;1.00;1.00;;;;;;;31.49;70.44;99663.28;5045541;28;20289;-70
2023/07/20 09:06:50;;;;;;;0.90;0.90;;;;;;;31.63;69.03;99665.78;5048052;28;20670;-72
2023/07/20 09:09:17;;;;;;;1.15;1.15;;;;;;;31.66;70.34;99641.41;5030328;28;20231;-72
2023/07/20 09:11:44;;;;;;;2.20;1.40;;;;;;;31.93;70.10;99641.88;5047888;28;20276;-70
2023/07/20 09:14:11;;;;;;;1.10;1.10;;;;;;;31.66;69.04;99611.91;5002433;28;20195;-71
2023/07/20 09:16:49;;;;;;;1.10;1.10;;;;;;;32.03;70.05;99636.66;5046968;28;20204;-71
2023/07/20 09:19:17;;;;;;;1.17;1.17;;;;;;;31.59;70.00;99631.28;5040432;28;20702;-71
2023/07/20 09:21:46;;;;;;;1.10;1.10;;;;;;;31.85;67.75;99616.66;5051701;28;20238;-72
2023/07/20 09:24:14;;;;;;;1.30;1.30;;;;;;;31.98;66.36;99617.38;5039774;28;20301;-73
2023/07/20 09:26:44;;;;;;;1.00;1.00;;;;;;;32.15;66.47;99597.25;5048290;28;20206;-73
2023/07/20 09:29:12;;;;;;;1.33;1.33;;;;;;;32.43;65.40;99613.63;5049617;28;20762;-73
2023/07/20 09:31:39;;;;;;;1.17;1.17;;;;;;;32.38;63.20;99596.22;5048582;28;20266;-72
2023/07/20 09:34:08;;;;;;;1.15;1.15;;;;;;;32.24;63.47;99600.06;5049184;28;20206;-73
2023/07/20 09:36:36;;;;;;;1.20;1.20;;;;;;;32.18;63.05;99597.00;5039740;28;20218;-72
2023/07/20 09:39:04;;;;;;;1.20;1.20;;;;;;;32.28;60.60;99587.22;5046983;28;20683;-78
2023/07/20 09:41:31;;;;;;;1.20;1.20;;;;;;;32.27;57.37;99577.47;5045542;28;20235;-74
2023/07/20 09:43:58;;;;;;;1.17;1.17;;;;;;;32.31;57.16;99501.09;5049284;28;20371;-73
2023/07/20 09:46:25;;;;;;;1.17;1.17;;;;;;;32.93;55.07;99557.53;5046770;28;20272;-72
2023/07/20 09:48:54;;;;;;;1.10;1.10;;;;;;;33.02;54.71;99535.28;5049916;28;20226;-73
2023/07/20 09:51:24;;;;;;;1.13;1.13;;;;;;;33.01;54.38;99548.81;5044837;28;20280;-72
2023/07/20 09:53:54;;;;;;;1.00;1.00;;;;;;;32.99;54.44;99542.75;5049384;28;20213;-72
2023/07/20 09:56:22;;;;;;;1.42;1.42;;;;;;;33.16;55.04;99537.66;5045525;28;20230;-72
2023/07/20 09:58:50;;;;;;;1.20;1.20;;;;;;;33.25;55.22;99530.59;5035764;28;20238;-71
2023/07/20 10:01:21;;;;;;;2.20;1.60;;;;;;;33.38;54.38;99537.47;5041905;28;20214;-71
2023/07/20 10:03:52;;;;;;;1.58;1.48;;;;;;;33.20;53.26;99539.09;5044080;28;20202;-72
2023/07/20 10:06:23;;;;;;;1.83;1.67;;;;;;;33.35;53.54;99544.97;5047411;28;20203;-72
2023/07/20 10:08:54;;;;;;;2.53;1.77;;;;;;;32.91;53.93;99560.38;5046780;28;20227;-72
2023/07/20 10:11:28;;;;;;;1.95;1.67;;;;;;;32.63;55.00;99550.28;5036515;28;20245;-72
2023/07/20 10:13:57;;;;;;;1.70;1.60;;;;;;;32.87;54.81;99542.81;5047080;28;20209;-72
2023/07/20 10:16:30;;;;;;;1.65;1.55;;;;;;;33.11;54.79;99555.13;5046116;28;20214;-73
2023/07/20 10:19:06;;;;;;;1.60;1.50;;;;;;;33.26;54.83;99543.06;5047941;28;20238;-71
2023/07/20 10:21:36;;;;;;;1.60;1.50;;;;;;;33.24;54.02;99551.28;5046157;28;20210;-71
2023/07/20 10:24:07;;;;;;;1.10;1.10;;;;;;;33.47;55.05;99535.78;5048672;28;20198;-72
2023/07/20 10:26:34;;;;;;;1.67;1.50;;;;;;;33.06;53.21;99527.78;5043995;28;20198;-71
2023/07/20 10:29:03;;;;;;;1.58;1.48;;;;;;;32.65;54.49;99458.84;5049853;28;20223;-71
2023/07/20 10:31:30;;;;;;;1.60;1.50;;;;;;;33.21;53.29;99537.25;5036697;28;20532;-71
2023/07/20 10:33:58;;;;;;;1.45;1.35;;;;;;;33.35;52.77;99531.53;5029594;28;20260;-71
2023/07/20 10:36:27;;;;;;;1.30;1.27;;;;;;;33.43;52.49;99528.97;5009509;28;20207;-71
2023/07/20 10:38:55;;;;;;;1.30;1.20;;;;;;;33.82;51.57;99532.69;5017529;28;20207;-73
2023/07/20 10:41:29;;;;;;;1.60;1.50;;;;;;;33.90;51.75;99522.09;5006485;28;20211;-70
2023/07/20 10:44:01;;;;;;;1.40;1.30;;;;;;;33.61;50.73;99521.13;5050385;28;20217;-70
2023/07/20 10:46:45;;;;;;;1.52;1.42;;;;;;;33.89;49.70;99526.63;5041929;28;20218;-71
2023/07/20 10:49:14;;;;;;;1.40;1.30;;;;;;;34.18;49.83;99532.06;4999440;28;20306;-70
2023/07/20 10:51:42;;;;;;;1.60;1.50;;;;;;;33.96;50.44;99539.53;5042610;28;20318;-70
2023/07/20 10:54:10;;;;;;;1.70;1.60;;;;;;;34.11;48.56;99524.66;5051449;28;20195;-71
2023/07/20 10:56:38;;;;;;;1.55;1.45;;;;;;;34.39;47.92;99539.19;5050535;28;20211;-71
2023/07/20 10:59:20;;;;;;;1.55;1.45;;;;;;;34.24;47.38;99530.69;5053166;28;20640;-70
2023/07/20 11:01:49;;;;;;;1.58;1.48;;;;;;;33.90;48.35;99535.53;5052640;28;20221;-71
2023/07/20 11:04:18;;;;;;;1.67;1.58;;;;;;;33.70;49.27;99515.81;5053125;28;20191;-71
2023/07/20 11:06:45;;;;;;;1.38;1.27;;;;;;;33.58;49.63;99479.22;5053053;28;20191;-71
2023/07/20 11:09:14;;;;;;;1.40;1.30;;;;;;;33.56;50.51;99478.53;5050821;28;20254;-71
2023/07/20 11:11:44;;;;;;;1.40;1.30;;;;;;;33.91;50.36;99490.66;5049005;28;20248;-71
2023/07/20 11:14:11;;;;;;;1.30;1.20;;;;;;;34.04;50.67;99496.63;5049728;28;20202;-71
2023/07/20 11:16:39;;;;;;;1.55;1.45;;;;;;;34.04;51.64;99499.31;5050324;28;20199;-71
2023/07/20 11:19:14;;;;;;;1.60;1.50;;;;;;;33.94;51.88;99487.69;5052611;28;20201;-71
2023/07/20 11:21:43;;;;;;;1.08;1.08;;;;;;;33.98;52.50;99497.19;5035600;28;20201;-71
2023/07/20 11:24:11;;;;;;;1.33;1.23;;;;;;;33.55;53.30;99495.63;5051194;28;20191;-70
2023/07/20 11:26:44;;;;;;;1.50;1.40;;;;;;;33.35;54.09;99493.88;5051660;28;20659;-70
2023/07/20 11:29:11;;;;;;;1.25;1.20;;;;;;;33.44;53.99;99471.53;5052958;28;20297;-71
2023/07/20 11:31:38;;;;;;;1.30;1.20;;;;;;;33.71;53.28;99490.59;5053252;28;20221;-71
2023/07/20 11:34:05;;;;;;;1.77;1.65;;;;;;;33.96;52.28;99496.47;5053245;28;20555;-71
2023/07/20 11:36:32;;;;;;;1.67;1.58;;;;;;;34.27;51.34;99487.31;5052858;28;20355;-71